createdAt,value
2019-03-09T00:03:20.477Z,7.30
2019-03-09T00:08:26.399Z,10.93
2019-03-09T00:13:32.725Z,11.57
2019-03-09T00:18:36.019Z,12.43
2019-03-09T00:23:57.830Z,12.43
2019-03-09T00:29:27.459Z,16.80
2019-03-09T00:34:49.615Z,12.23
2019-03-09T00:39:53.231Z,16.53
2019-03-09T00:45:05.563Z,16.77
2019-03-09T00:50:09.539Z,11.70
2019-03-09T00:55:12.596Z,15.53
2019-03-09T01:00:17.704Z,17.63
2019-03-09T01:05:21.251Z,13.37
2019-03-09T01:10:24.596Z,12.93
2019-03-09T01:15:30.134Z,13.47
2019-03-09T01:20:33.435Z,15.50
2019-03-09T01:25:37.009Z,20.40
2019-03-09T01:30:40.634Z,11.17
2019-03-09T01:35:44.083Z,11.00
2019-03-09T01:40:50.874Z,11.70
2019-03-09T01:45:54.388Z,12.30
2019-03-09T01:51:03.251Z,11.60
2019-03-09T01:56:06.742Z,10.10
2019-03-09T02:01:10.157Z,9.43
2019-03-09T02:06:13.301Z,10.77
2019-03-09T02:11:16.532Z,11.03
2019-03-09T02:16:19.948Z,13.83
2019-03-09T02:21:23.544Z,12.00
2019-03-09T02:26:28.391Z,12.40
2019-03-09T02:31:35.039Z,11.23
2019-03-09T02:36:41.522Z,11.17
2019-03-09T02:41:45.038Z,12.97
2019-03-09T02:46:48.557Z,10.27
2019-03-09T02:51:55.185Z,11.10
2019-03-09T02:56:58.581Z,12.47
2019-03-09T03:02:19.602Z,13.53
2019-03-09T03:07:23.566Z,14.83
2019-03-09T03:12:27.073Z,13.77
2019-03-09T03:17:30.274Z,16.13
2019-03-09T03:22:33.704Z,18.53
2019-03-09T03:27:38.332Z,18.07
2019-03-09T03:32:41.906Z,15.57
2019-03-09T03:37:52.200Z,18.20
2019-03-09T03:43:00.705Z,14.90
2019-03-09T03:48:04.122Z,14.37
2019-03-09T03:53:07.421Z,14.37
2019-03-09T03:58:10.687Z,15.30
2019-03-09T04:03:14.157Z,15.53
2019-03-09T04:08:17.102Z,16.90
2019-03-09T04:13:21.905Z,18.07
2019-03-09T04:18:24.690Z,17.20
2019-03-09T04:23:30.527Z,15.70
2019-03-09T04:28:48.114Z,18.10
2019-03-09T04:33:51.497Z,16.53
2019-03-09T04:38:57.738Z,17.20
2019-03-09T04:44:00.954Z,14.37
2019-03-09T04:49:06.701Z,13.80
2019-03-09T04:54:10.093Z,14.27
2019-03-09T04:59:20.884Z,13.73
2019-03-09T05:04:43.136Z,14.83
2019-03-09T05:09:59.031Z,13.57
2019-03-09T05:15:02.491Z,13.37
2019-03-09T05:20:05.427Z,13.43
2019-03-09T05:25:08.870Z,13.63
2019-03-09T05:30:14.740Z,16.10
2019-03-09T05:35:20.634Z,11.23
2019-03-09T05:40:24.913Z,11.00
2019-03-09T05:45:31.253Z,10.00
2019-03-09T05:50:34.570Z,7.50
2019-03-09T05:55:37.956Z,8.17
2019-03-09T06:00:42.395Z,6.67
2019-03-09T06:05:47.827Z,8.67
2019-03-09T06:10:51.925Z,8.60
2019-03-09T06:16:01.089Z,5.30
2019-03-09T06:21:07.429Z,9.33
2019-03-09T06:26:14.405Z,5.77
2019-03-09T06:31:18.342Z,9.63
2019-03-09T06:36:45.396Z,5.40
2019-03-09T06:42:43.491Z,8.17
2019-03-09T06:48:30.530Z,9.40
2019-03-09T06:53:40.055Z,9.60
2019-03-09T06:58:43.317Z,11.10
2019-03-09T07:03:48.792Z,11.80
2019-03-09T07:08:52.011Z,10.83
2019-03-09T07:13:55.412Z,14.93
2019-03-09T07:18:58.782Z,10.73
2019-03-09T07:24:02.300Z,13.90
2019-03-09T07:29:08.701Z,12.87
2019-03-09T07:34:36.938Z,17.27
2019-03-09T07:40:05.329Z,19.67
2019-03-09T07:45:11.953Z,14.47
2019-03-09T07:50:18.143Z,22.50
2019-03-09T07:55:21.580Z,21.33
2019-03-09T08:00:25.071Z,17.23
2019-03-09T08:05:35.753Z,22.43
2019-03-09T08:10:39.097Z,22.03
2019-03-09T08:15:45.515Z,16.13
2019-03-09T08:20:54.834Z,16.20
2019-03-09T08:25:58.517Z,18.20
2019-03-09T08:31:01.789Z,26.83
2019-03-09T08:36:04.978Z,20.93
2019-03-09T08:41:08.274Z,20.23
2019-03-09T08:46:17.904Z,11.83
2019-03-09T08:51:20.955Z,19.07
2019-03-09T08:56:27.060Z,13.60
2019-03-09T09:01:30.908Z,21.07
2019-03-09T09:06:33.701Z,17.50
2019-03-09T09:11:37.044Z,21.97
2019-03-09T09:16:40.387Z,12.40
2019-03-09T09:21:43.208Z,21.77
2019-03-09T09:26:46.477Z,13.20
2019-03-09T09:31:52.041Z,17.87
2019-03-09T09:36:55.156Z,15.97
2019-03-09T09:41:59.703Z,12.23
2019-03-09T09:47:03.109Z,16.37
2019-03-09T09:52:15.264Z,11.03
2019-03-09T09:57:18.087Z,17.23
2019-03-09T10:02:21.225Z,13.83
2019-03-09T10:07:24.019Z,11.43
2019-03-09T10:12:26.832Z,12.90
2019-03-09T10:17:39.828Z,17.30
2019-03-09T10:22:34.426Z,9.97
2019-03-09T10:27:37.223Z,11.87
2019-03-09T10:32:40.059Z,12.60
2019-03-09T10:37:42.923Z,12.83
2019-03-09T10:42:45.755Z,14.47
2019-03-09T10:47:55.214Z,13.63
2019-03-09T10:53:07.167Z,15.77
2019-03-09T10:58:09.993Z,20.07
2019-03-09T11:03:12.904Z,18.40
2019-03-09T11:08:15.740Z,16.90
2019-03-09T11:13:18.569Z,16.57
2019-03-09T11:18:24.572Z,14.40
2019-03-09T11:23:27.460Z,13.80
2019-03-09T11:28:30.811Z,12.10
2019-03-09T11:33:33.693Z,16.00
2019-03-09T11:38:36.532Z,17.03
2019-03-09T11:43:39.368Z,11.60
2019-03-09T11:48:42.686Z,12.43
2019-03-09T11:53:51.938Z,19.10
2019-03-09T11:58:58.114Z,9.17
2019-03-09T12:04:01.732Z,11.90
2019-03-09T12:09:13.815Z,11.17
2019-03-09T12:14:19.692Z,12.00
2019-03-09T12:19:26.921Z,9.00
2019-03-09T12:24:30.539Z,13.40
2019-03-09T12:29:34.465Z,13.83
2019-03-09T12:34:37.736Z,14.60
2019-03-09T12:39:41.193Z,9.70
2019-03-09T12:44:50.872Z,15.70
2019-03-09T12:49:57.544Z,7.90
2019-03-09T12:55:03.135Z,8.37
2019-03-09T13:00:08.889Z,15.60
2019-03-09T13:05:12.070Z,11.20
2019-03-09T13:10:15.399Z,13.10
2019-03-09T13:15:18.400Z,10.60
2019-03-09T13:20:21.922Z,11.90
2019-03-09T13:25:25.366Z,9.47
2019-03-09T13:30:32.423Z,8.97
2019-03-09T13:35:35.342Z,12.00
2019-03-09T13:40:38.726Z,12.67
2019-03-09T13:45:41.896Z,9.50
2019-03-09T13:50:44.784Z,16.47
2019-03-09T13:55:48.183Z,10.33
2019-03-09T14:00:53.069Z,11.93
2019-03-09T14:05:56.976Z,10.40
2019-03-09T14:11:01.716Z,15.57
2019-03-09T14:16:05.058Z,10.80
2019-03-09T14:21:08.324Z,9.60
2019-03-09T14:26:11.639Z,9.63
2019-03-09T14:31:18.012Z,9.70
2019-03-09T14:36:21.035Z,5.47
2019-03-09T14:41:27.209Z,12.93
2019-03-09T14:46:33.784Z,13.70
2019-03-09T14:51:48.833Z,13.23
2019-03-09T14:56:52.301Z,11.77
2019-03-09T15:01:55.864Z,7.23
2019-03-09T15:07:05.378Z,9.30
2019-03-09T15:12:11.394Z,14.67
2019-03-09T15:17:14.631Z,13.83
2019-03-09T15:22:21.024Z,9.63
2019-03-09T15:27:26.647Z,11.93
2019-03-09T15:32:30.004Z,10.47
2019-03-09T15:37:33.425Z,8.13
2019-03-09T15:42:36.890Z,12.97
2019-03-09T15:47:40.140Z,7.43
2019-03-09T15:52:43.464Z,6.80
2019-03-09T15:57:46.947Z,8.63
2019-03-09T16:02:50.464Z,5.00
2019-03-09T16:07:53.956Z,8.40
2019-03-09T16:13:00.678Z,5.47
2019-03-09T16:18:03.981Z,4.50
2019-03-09T16:23:07.328Z,5.93
2019-03-09T16:28:10.723Z,9.27
2019-03-09T16:33:14.019Z,6.80
2019-03-09T16:38:19.102Z,8.17
2019-03-09T16:43:31.772Z,5.53
2019-03-09T16:48:38.300Z,5.97
2019-03-09T16:53:41.626Z,6.07
2019-03-09T16:58:45.119Z,9.47
2019-03-09T17:03:48.418Z,9.70
2019-03-09T17:08:51.886Z,7.93
2019-03-09T17:13:55.282Z,5.50
2019-03-09T17:18:58.669Z,11.13
2019-03-09T17:24:01.991Z,6.40
2019-03-09T17:29:05.394Z,8.17
2019-03-09T17:34:08.597Z,4.30
2019-03-09T17:39:12.045Z,5.50
2019-03-09T17:44:15.388Z,7.40
2019-03-09T17:49:18.833Z,7.60
2019-03-09T17:54:22.262Z,7.20
2019-03-09T17:59:25.484Z,6.23
2019-03-09T18:04:29.186Z,5.30
2019-03-09T18:09:32.483Z,2.40
2019-03-09T18:14:35.796Z,1.47
2019-03-09T18:19:39.279Z,1.17
2019-03-09T18:24:42.899Z,2.70
2019-03-09T18:29:46.412Z,5.30
2019-03-09T18:34:52.778Z,4.97
2019-03-09T18:39:58.155Z,3.47
2019-03-09T18:45:03.544Z,1.77
2019-03-09T18:50:06.642Z,4.43
2019-03-09T18:55:10.338Z,5.60
2019-03-09T19:00:15.569Z,4.53
2019-03-09T19:05:18.617Z,6.70
2019-03-09T19:10:21.562Z,5.40
2019-03-09T19:15:24.631Z,7.73
2019-03-09T19:20:27.475Z,7.77
2019-03-09T19:25:33.606Z,12.97
2019-03-09T19:30:36.486Z,5.73
2019-03-09T19:35:39.320Z,9.03
2019-03-09T19:40:42.208Z,6.60
2019-03-09T19:45:45.061Z,8.60
2019-03-09T19:50:47.901Z,4.40
2019-03-09T19:55:50.763Z,8.57
2019-03-09T20:00:54.299Z,11.47
2019-03-09T20:05:57.159Z,8.80
2019-03-09T20:11:01.946Z,12.13
2019-03-09T20:16:05.152Z,7.87
2019-03-09T20:21:08.771Z,19.47
2019-03-09T20:26:12.118Z,17.87
2019-03-09T20:31:15.395Z,13.73
2019-03-09T20:36:18.228Z,14.63
2019-03-09T20:41:21.613Z,13.00
2019-03-09T20:46:27.629Z,11.43
2019-03-09T20:51:31.209Z,12.80
2019-03-09T20:56:34.716Z,11.50
2019-03-09T21:01:37.956Z,10.00
2019-03-09T21:06:41.457Z,15.03
2019-03-09T21:11:44.789Z,13.23
2019-03-09T21:16:48.152Z,14.27
2019-03-09T21:21:51.530Z,9.60
2019-03-09T21:26:58.156Z,8.07
2019-03-09T21:32:01.512Z,13.90
2019-03-09T21:37:04.776Z,15.80
2019-03-09T21:42:24.780Z,11.60
2019-03-09T21:47:29.465Z,13.63
2019-03-09T21:52:32.298Z,9.83
2019-03-09T21:57:41.032Z,12.33
2019-03-09T22:02:44.574Z,14.07
2019-03-09T22:07:48.154Z,7.73
2019-03-09T22:12:51.454Z,13.73
2019-03-09T22:17:57.883Z,13.73
2019-03-09T22:23:01.346Z,14.23
2019-03-09T22:28:04.811Z,12.00
2019-03-09T22:33:08.166Z,9.80
2019-03-09T22:38:11.534Z,12.07
2019-03-09T22:43:14.981Z,10.27
2019-03-09T22:48:18.433Z,14.83
2019-03-09T22:53:21.915Z,18.20
2019-03-09T22:58:28.400Z,9.83
2019-03-09T23:03:31.879Z,9.13
2019-03-09T23:08:35.430Z,12.07
2019-03-09T23:13:45.839Z,10.73
2019-03-09T23:18:49.285Z,6.43
2019-03-09T23:23:55.032Z,10.33
2019-03-09T23:28:57.890Z,9.83
2019-03-09T23:34:03.422Z,7.30
2019-03-09T23:39:07.416Z,5.53
2019-03-09T23:44:10.778Z,11.00
2019-03-09T23:49:17.103Z,7.87
2019-03-09T23:54:20.398Z,10.33
2019-03-09T23:59:23.756Z,12.63
